< < Back
Terminal Aerodrome Forecast


Current Version              Previous Versions:   1  2  3  4  5  6  7  8  9  

Terminal Aerodrome Forecast

597
FTUS42 KFFC 261730
TAFPDK
TAF
KPDK 261730Z 2618/2718 30012KT P6SM SKC
     FM262100 26007KT P6SM SCT080
     FM270300 25007KT P6SM BKN050
     FM271000 29006KT P6SM BKN030
     FM271600 31010KT P6SM BKN050=

Latest METAR

210
SAUS70 KWBC 261800 RRG
MTRPDK
METAR KPDK 261753Z 28013G20KT 10SM CLR 11/M06 A3008 RMK AO2 SLP189
T01111061 10117 20056 58000


USA.gov is the U.S. government's official web portal to all federal, state and local government web resources and services.